Time;durP1;ratioP1;P1;durP2;ratioP2;P2;SDS_P1;SDS_P2;PMS_P1;PMS_P2;Temp;Humidity;BMP_temperature;BMP_pressure;BME280_temperature;BME280_humidity;BME280_pressure;Samples;Min_cycle;Max_cycle;Signal;HPM_P1;HPM_P2
2022/06/29 00:00:36;;;;;;;6.78;5.97;;;;;;;25.16;73.71;99776.44;6214662;23;20036;-85
2022/06/29 00:03:01;;;;;;;10.63;6.70;;;;;;;25.01;75.37;99786.25;6187441;23;20055;-84
2022/06/29 00:05:27;;;;;;;7.97;6.47;;;;;;;24.74;77.41;99767.63;6214861;23;20046;-85
2022/06/29 00:07:57;;;;;;;7.82;6.95;;;;;;;24.86;76.75;99763.31;6214428;23;20055;-84
2022/06/29 00:10:23;;;;;;;8.52;6.95;;;;;;;24.83;76.91;99770.00;6214831;23;20016;-84
2022/06/29 00:12:48;;;;;;;8.00;6.20;;;;;;;24.54;78.33;99759.72;6213689;23;20067;-85
2022/06/29 00:15:15;;;;;;;6.47;5.85;;;;;;;24.53;79.32;99769.50;6188490;23;20382;-84
2022/06/29 00:17:41;;;;;;;7.47;5.78;;;;;;;24.57;78.56;99769.97;6187900;23;20031;-85
2022/06/29 00:20:10;;;;;;;6.95;6.20;;;;;;;24.55;78.61;99769.72;6214925;23;20012;-85
2022/06/29 00:22:36;;;;;;;8.48;6.20;;;;;;;24.62;78.41;99763.44;6187462;23;20021;-85
2022/06/29 00:25:02;;;;;;;7.38;6.40;;;;;;;24.47;80.56;99768.81;6214506;23;20009;-85
2022/06/29 00:27:28;;;;;;;7.55;6.18;;;;;;;24.37;80.26;99764.88;6162831;23;20349;-85
2022/06/29 00:29:53;;;;;;;8.23;6.18;;;;;;;24.31;81.56;99758.50;6214410;23;20008;-85
2022/06/29 00:32:19;;;;;;;7.15;6.35;;;;;;;24.35;80.62;99747.63;6213747;23;20441;-85
2022/06/29 00:34:44;;;;;;;6.93;5.80;;;;;;;24.48;79.83;99739.16;6215391;23;20370;-85
2022/06/29 00:37:10;;;;;;;7.25;6.43;;;;;;;24.54;79.20;99742.69;6214369;23;20008;-85
2022/06/29 00:39:35;;;;;;;6.88;6.18;;;;;;;24.60;79.05;99737.69;6214473;23;20020;-85
2022/06/29 00:42:01;;;;;;;9.15;6.57;;;;;;;24.52;79.58;99739.63;6214029;23;20338;-85
2022/06/29 00:44:27;;;;;;;7.18;6.03;;;;;;;24.55;78.96;99735.69;6214520;23;20350;-85
2022/06/29 00:47:00;;;;;;;7.55;6.35;;;;;;;24.59;78.73;99736.13;6214085;23;20381;-85
2022/06/29 00:49:27;;;;;;;9.60;6.25;;;;;;;24.51;79.09;99738.09;6214190;23;20012;-84
2022/06/29 00:52:05;;;;;;;8.15;6.00;;;;;;;24.50;78.69;99739.41;6187243;23;20039;-85
2022/06/29 00:54:53;;;;;;;9.18;6.05;;;;;;;24.27;78.83;99724.81;6214400;23;20013;-84
2022/06/29 00:57:26;;;;;;;8.07;6.18;;;;;;;24.35;78.73;99724.94;6213905;23;20013;-85
2022/06/29 00:59:55;;;;;;;7.88;5.60;;;;;;;24.29;78.63;99736.38;6214084;23;20012;-84
2022/06/29 01:02:25;;;;;;;10.57;7.75;;;;;;;24.35;78.43;99728.56;6214029;23;20397;-84
2022/06/29 01:04:51;;;;;;;8.00;6.20;;;;;;;24.35;78.55;99741.97;6187264;23;20012;-84
2022/06/29 01:07:19;;;;;;;8.45;5.43;;;;;;;24.19;78.68;99728.81;6214022;23;20015;-84
2022/06/29 01:09:45;;;;;;;9.25;5.85;;;;;;;24.20;78.26;99727.50;6187844;23;20341;-85
2022/06/29 01:12:11;;;;;;;8.65;5.57;;;;;;;24.18;77.88;99733.75;6213743;23;20016;-84
2022/06/29 01:14:40;;;;;;;9.50;6.28;;;;;;;24.10;78.33;99727.13;6212290;23;20013;-84
2022/06/29 01:17:06;;;;;;;8.80;6.00;;;;;;;23.78;81.22;99727.06;6186665;23;20031;-84
2022/06/29 01:19:31;;;;;;;8.93;6.07;;;;;;;23.94;80.28;99728.88;6186843;23;20009;-85
2022/06/29 01:21:58;;;;;;;7.40;6.22;;;;;;;24.00;80.15;99723.91;6213396;23;20014;-85
2022/06/29 01:24:24;;;;;;;9.52;6.10;;;;;;;23.88;81.00;99716.88;6187117;23;20096;-84
2022/06/29 01:26:49;;;;;;;8.77;6.15;;;;;;;23.85;81.26;99726.47;6213548;23;20040;-85
2022/06/29 01:29:16;;;;;;;7.35;5.82;;;;;;;23.57;82.57;99720.41;6212279;23;20018;-84
2022/06/29 01:31:42;;;;;;;6.85;6.18;;;;;;;23.31;84.45;99720.19;6186179;23;20014;-84
2022/06/29 01:34:08;;;;;;;8.48;6.35;;;;;;;23.20;85.27;99721.84;6186586;23;20361;-85
2022/06/29 01:36:33;;;;;;;9.32;6.80;;;;;;;23.20;85.49;99713.38;6213523;23;20004;-84
2022/06/29 01:38:59;;;;;;;7.35;6.10;;;;;;;23.47;84.55;99707.91;6213718;23;20028;-84
2022/06/29 01:41:25;;;;;;;8.55;6.32;;;;;;;23.57;84.03;99694.94;6213019;23;20500;-85
2022/06/29 01:43:51;;;;;;;7.95;6.15;;;;;;;23.70;83.99;99700.66;6213375;23;20008;-84
2022/06/29 01:46:16;;;;;;;8.35;5.85;;;;;;;23.64;83.75;99699.97;6213897;23;20449;-85
2022/06/29 01:48:42;;;;;;;7.20;6.43;;;;;;;23.42;85.21;99688.91;6213466;23;20008;-85
2022/06/29 01:51:07;;;;;;;7.80;5.95;;;;;;;23.27;86.40;99697.06;6213498;23;20019;-85
2022/06/29 01:53:33;;;;;;;7.43;6.72;;;;;;;23.14;87.74;99695.69;6187074;23;20160;-85
2022/06/29 01:55:58;;;;;;;8.25;6.72;;;;;;;23.27;86.58;99697.06;6187223;23;20009;-85
2022/06/29 01:58:24;;;;;;;9.10;6.55;;;;;;;23.23;87.29;99681.16;6186870;23;20005;-85
2022/06/29 02:00:50;;;;;;;8.90;6.03;;;;;;;23.20;87.44;99687.13;6213433;23;20060;-85
2022/06/29 02:03:15;;;;;;;8.35;6.60;;;;;;;23.22;87.88;99687.34;6213028;23;20500;-85
2022/06/29 02:05:41;;;;;;;6.82;6.13;;;;;;;23.09;88.99;99692.94;6213644;23;20019;-85
2022/06/29 02:08:07;;;;;;;8.45;6.20;;;;;;;23.14;88.67;99687.19;6212957;23;20381;-84
2022/06/29 02:10:32;;;;;;;8.27;6.30;;;;;;;23.26;88.18;99685.00;6186948;23;20036;-85
2022/06/29 02:12:58;;;;;;;7.15;6.30;;;;;;;23.31;88.20;99694.72;6213075;23;20013;-85
2022/06/29 02:15:24;;;;;;;6.97;6.10;;;;;;;23.20;88.72;99704.13;6213711;23;20013;-85
2022/06/29 02:17:50;;;;;;;7.90;6.10;;;;;;;23.27;88.23;99697.84;6186924;23;20132;-85
2022/06/29 02:20:16;;;;;;;8.48;6.90;;;;;;;23.24;88.86;99696.84;6186663;23;20017;-85
2022/06/29 02:22:42;;;;;;;10.07;6.88;;;;;;;23.27;88.19;99691.41;6213277;23;20004;-85
2022/06/29 02:25:08;;;;;;;8.68;6.80;;;;;;;23.15;88.93;99694.38;6212758;23;20013;-85
2022/06/29 02:27:41;;;;;;;7.68;6.10;;;;;;;23.27;88.06;99699.91;6213809;23;20442;-85
2022/06/29 02:30:09;;;;;;;8.90;6.07;;;;;;;23.37;87.44;99701.84;6212895;23;20020;-85
2022/06/29 02:35:19;;;;;;;8.02;5.95;;;;;;;23.25;88.34;99712.50;6212889;23;20460;-85
2022/06/29 02:37:44;;;;;;;7.63;6.60;;;;;;;23.32;88.96;99713.22;6162131;23;20004;-84
2022/06/29 02:40:10;;;;;;;7.38;6.35;;;;;;;23.39;88.77;99712.63;6213257;23;20009;-85
2022/06/29 02:42:36;;;;;;;11.27;6.55;;;;;;;23.48;88.02;99700.97;6213122;23;20523;-84
2022/06/29 02:45:01;;;;;;;7.70;6.28;;;;;;;23.62;86.46;99699.72;6213167;23;20008;-85
2022/06/29 02:47:27;;;;;;;8.00;6.38;;;;;;;23.61;86.65;99706.72;6213066;23;20637;-85
2022/06/29 02:49:53;;;;;;;7.55;5.85;;;;;;;23.62;87.19;99709.00;6213238;23;20012;-84
2022/06/29 02:52:18;;;;;;;7.75;6.18;;;;;;;23.74;86.48;99720.19;6212580;23;20471;-85
2022/06/29 02:54:44;;;;;;;6.55;5.85;;;;;;;23.88;85.68;99708.38;6213190;23;20448;-85
2022/06/29 02:57:09;;;;;;;7.47;5.45;;;;;;;23.93;85.06;99701.88;6212912;23;20401;-85
2022/06/29 02:59:35;;;;;;;7.90;6.18;;;;;;;23.91;85.99;99695.97;6213210;23;20009;-84
2022/06/29 03:02:00;;;;;;;9.00;5.88;;;;;;;23.98;85.78;99695.34;6212554;23;20040;-84
2022/06/29 03:04:26;;;;;;;6.93;5.68;;;;;;;23.91;85.76;99693.13;6186704;23;20027;-85
2022/06/29 03:06:51;;;;;;;8.90;6.40;;;;;;;23.98;85.76;99686.84;6212933;23;20007;-85
2022/06/29 03:09:17;;;;;;;6.93;5.88;;;;;;;24.09;84.26;99698.03;6212856;23;20500;-85
2022/06/29 03:11:42;;;;;;;10.23;5.68;;;;;;;24.10;84.07;99705.19;6212946;23;20008;-84
2022/06/29 03:14:08;;;;;;;7.18;5.72;;;;;;;24.05;84.85;99702.47;6212696;23;20015;-84
2022/06/29 03:16:33;;;;;;;6.38;5.78;;;;;;;24.04;84.48;99703.78;6213141;23;20072;-85
2022/06/29 03:18:59;;;;;;;9.45;6.38;;;;;;;23.85;84.61;99709.47;6212727;23;20015;-85
2022/06/29 03:21:24;;;;;;;6.88;5.88;;;;;;;23.73;85.01;99716.59;6186731;23;20276;-85
2022/06/29 03:23:50;;;;;;;8.30;6.10;;;;;;;23.60;86.04;99708.00;6212780;23;20345;-84
2022/06/29 03:26:15;;;;;;;7.70;6.10;;;;;;;23.73;85.49;99699.59;6212936;23;20439;-85
2022/06/29 03:28:41;;;;;;;7.05;6.10;;;;;;;23.85;84.72;99703.81;6212912;23;20088;-84
2022/06/29 03:31:06;;;;;;;8.98;6.05;;;;;;;23.89;84.90;99701.44;6212517;23;20024;-85
2022/06/29 03:33:32;;;;;;;6.78;5.90;;;;;;;23.80;85.89;99701.03;6186293;23;20040;-85
2022/06/29 03:35:57;;;;;;;7.25;5.38;;;;;;;23.85;86.01;99700.19;6212679;23;20080;-84
2022/06/29 03:38:23;;;;;;;10.10;5.95;;;;;;;23.98;86.22;99701.00;6213288;23;20067;-85
2022/06/29 03:40:49;;;;;;;6.95;5.80;;;;;;;23.96;85.81;99700.81;6212905;23;20004;-84
2022/06/29 03:43:14;;;;;;;9.00;5.82;;;;;;;24.08;86.19;99707.06;6186056;23;20013;-84
2022/06/29 03:45:40;;;;;;;9.27;6.00;;;;;;;24.07;85.76;99699.84;6213118;23;20007;-85
2022/06/29 03:48:06;;;;;;;7.35;5.70;;;;;;;23.92;88.13;99694.69;6212581;23;20035;-85
2022/06/29 03:50:32;;;;;;;7.47;6.45;;;;;;;23.90;89.69;99697.28;6212860;23;20414;-84
2022/06/29 03:52:58;;;;;;;9.80;6.82;;;;;;;23.90;89.50;99685.19;6212369;23;20012;-83
2022/06/29 03:55:23;;;;;;;8.25;6.95;;;;;;;23.98;88.69;99698.19;6212588;23;20012;-83
2022/06/29 03:57:49;;;;;;;10.07;6.50;;;;;;;24.01;88.61;99702.03;6212690;23;20020;-84
2022/06/29 04:00:15;;;;;;;10.35;7.07;;;;;;;24.08;88.94;99701.38;6212364;23;20013;-84
2022/06/29 04:02:41;;;;;;;7.78;6.65;;;;;;;24.09;86.70;99698.03;6212620;23;20036;-84
2022/06/29 04:05:07;;;;;;;9.40;6.50;;;;;;;23.97;88.34;99699.50;6212581;23;20043;-84
2022/06/29 04:07:33;;;;;;;8.43;6.38;;;;;;;23.91;88.89;99692.38;6212354;23;20337;-83
2022/06/29 04:10:01;;;;;;;7.45;6.07;;;;;;;23.99;87.84;99688.38;6186537;23;20032;-84
2022/06/29 04:12:31;;;;;;;8.07;6.40;;;;;;;23.96;86.97;99689.47;6212531;23;20024;-84
2022/06/29 04:14:57;;;;;;;8.93;6.07;;;;;;;24.17;85.47;99697.44;6186408;23;20449;-84
2022/06/29 04:17:23;;;;;;;8.25;6.18;;;;;;;24.26;86.09;99694.19;6186005;23;20012;-84
2022/06/29 04:19:48;;;;;;;9.63;5.57;;;;;;;24.54;84.54;99685.97;6212563;23;20013;-85
2022/06/29 04:22:14;;;;;;;9.07;6.07;;;;;;;24.65;83.40;99682.94;6212113;23;19997;-84
2022/06/29 04:24:39;;;;;;;7.13;5.90;;;;;;;24.76;82.41;99684.81;6212814;23;20064;-85
2022/06/29 04:27:05;;;;;;;10.10;6.38;;;;;;;24.74;80.52;99684.59;6185839;23;20418;-84
2022/06/29 04:29:31;;;;;;;10.25;6.32;;;;;;;24.92;80.75;99687.34;6212486;23;20491;-84
2022/06/29 04:31:56;;;;;;;9.10;6.10;;;;;;;25.07;80.07;99675.47;6186565;23;20334;-84
2022/06/29 04:34:21;;;;;;;9.48;5.93;;;;;;;25.10;77.95;99687.81;6214270;23;20468;-84
2022/06/29 04:36:47;;;;;;;10.35;6.15;;;;;;;25.04;75.88;99682.22;6213918;23;20016;-84
2022/06/29 04:39:13;;;;;;;9.05;5.78;;;;;;;25.13;74.75;99681.78;6213572;23;20449;-85
2022/06/29 04:41:38;;;;;;;7.47;5.80;;;;;;;25.12;73.98;99670.97;6214702;23;20012;-84
2022/06/29 04:44:04;;;;;;;6.82;5.68;;;;;;;25.26;72.49;99675.34;6214261;23;20310;-84
2022/06/29 04:46:30;;;;;;;10.00;5.57;;;;;;;25.41;72.56;99681.97;6214506;23;20087;-84
2022/06/29 04:48:58;;;;;;;8.02;6.05;;;;;;;25.41;71.79;99687.66;6214265;23;20005;-84
2022/06/29 04:51:26;;;;;;;11.25;6.50;;;;;;;25.47;72.82;99679.03;6213706;23;20036;-84
2022/06/29 04:53:55;;;;;;;9.05;5.88;;;;;;;25.55;69.26;99668.56;6213791;23;20000;-84
2022/06/29 04:56:23;;;;;;;11.13;5.50;;;;;;;25.64;70.65;99673.75;6187365;23;20009;-84
2022/06/29 04:58:50;;;;;;;8.05;5.88;;;;;;;25.78;69.33;99675.25;6214338;23;20036;-84
2022/06/29 05:01:16;;;;;;;9.20;5.70;;;;;;;25.91;69.00;99674.47;6213765;23;20020;-84
2022/06/29 05:03:42;;;;;;;9.77;5.80;;;;;;;25.89;68.40;99669.31;6214234;23;20004;-84
2022/06/29 05:06:08;;;;;;;7.75;5.85;;;;;;;25.85;68.46;99668.88;6213998;23;20436;-84
2022/06/29 05:08:34;;;;;;;8.23;5.88;;;;;;;25.92;68.67;99656.09;6213858;23;20384;-84
2022/06/29 05:10:59;;;;;;;6.80;5.63;;;;;;;25.97;68.82;99670.16;6214096;23;20013;-84
2022/06/29 05:13:25;;;;;;;6.72;5.63;;;;;;;26.20;67.68;99675.34;6213493;23;20087;-84
2022/06/29 05:15:50;;;;;;;12.38;6.18;;;;;;;26.37;67.30;99667.13;6214204;23;20009;-84
2022/06/29 05:18:16;;;;;;;8.57;5.65;;;;;;;26.62;67.70;99659.78;6213652;23;20027;-84
2022/06/29 05:20:42;;;;;;;6.45;5.53;;;;;;;26.75;66.92;99659.69;6214102;23;20012;-84
2022/06/29 05:23:09;;;;;;;8.63;5.40;;;;;;;26.68;67.57;99657.56;6213315;23;20020;-84
2022/06/29 05:25:35;;;;;;;9.18;6.05;;;;;;;26.64;66.66;99654.28;6187569;23;20019;-84
2022/06/29 05:28:00;;;;;;;9.38;5.70;;;;;;;26.54;68.04;99647.56;6214404;23;20081;-84
2022/06/29 05:30:26;;;;;;;8.23;5.63;;;;;;;26.50;65.82;99652.84;6213740;23;20012;-84
2022/06/29 05:32:51;;;;;;;6.20;5.60;;;;;;;26.44;64.35;99660.78;6213446;23;20012;-84
2022/06/29 05:35:17;;;;;;;7.97;5.25;;;;;;;26.33;64.24;99658.19;6213967;23;20016;-84
2022/06/29 05:37:43;;;;;;;7.65;5.25;;;;;;;26.45;63.40;99663.03;6213833;23;20541;-84
2022/06/29 05:40:08;;;;;;;7.88;5.22;;;;;;;26.42;63.41;99669.09;6213663;23;20087;-84
2022/06/29 05:42:34;;;;;;;9.27;6.05;;;;;;;26.39;63.47;99664.50;6213554;23;20083;-83
2022/06/29 05:45:00;;;;;;;7.60;5.30;;;;;;;26.11;64.04;99650.22;6214042;23;20016;-84
2022/06/29 05:47:25;;;;;;;8.82;5.45;;;;;;;26.13;64.58;99648.31;6186788;23;20021;-84
2022/06/29 05:49:51;;;;;;;7.57;5.95;;;;;;;26.11;63.80;99644.53;6187566;23;20012;-84
2022/06/29 05:52:17;;;;;;;8.50;6.10;;;;;;;26.00;65.04;99642.72;6213311;23;20009;-84
2022/06/29 05:54:42;;;;;;;8.73;5.57;;;;;;;25.97;65.15;99652.34;6213522;23;20349;-84
2022/06/29 05:57:08;;;;;;;10.70;5.97;;;;;;;25.96;66.83;99645.88;6187444;23;20009;-84
2022/06/29 05:59:34;;;;;;;10.02;5.80;;;;;;;26.09;65.89;99652.81;6213456;23;20323;-83
2022/06/29 06:01:59;;;;;;;10.55;6.10;;;;;;;26.12;65.23;99655.34;6213420;23;20087;-84
2022/06/29 06:04:25;;;;;;;11.60;6.00;;;;;;;26.24;64.79;99658.72;6186612;23;20008;-83
2022/06/29 06:06:51;;;;;;;11.38;5.78;;;;;;;26.69;64.46;99652.63;6187094;23;20016;-84
2022/06/29 06:09:21;;;;;;;8.13;5.70;;;;;;;27.08;63.40;99643.03;6213294;23;20035;-84
2022/06/29 06:11:47;;;;;;;8.93;6.72;;;;;;;27.38;62.45;99643.16;6186557;23;20445;-84
2022/06/29 06:14:12;;;;;;;22.02;8.85;;;;;;;27.74;60.53;99640.28;6213931;23;20016;-84
2022/06/29 06:16:38;;;;;;;6.40;5.57;;;;;;;28.06;59.05;99631.22;6213374;23;20001;-84
2022/06/29 06:19:03;;;;;;;7.57;5.55;;;;;;;28.14;59.34;99629.16;6213221;23;20013;-84
2022/06/29 06:21:29;;;;;;;10.18;5.63;;;;;;;28.27;59.77;99621.16;6186735;23;20020;-84
2022/06/29 06:23:55;;;;;;;9.38;5.65;;;;;;;28.28;57.67;99628.41;6213475;23;20076;-84
2022/06/29 06:26:20;;;;;;;7.30;5.30;;;;;;;28.67;56.20;99632.75;6212945;23;20012;-85
2022/06/29 06:28:46;;;;;;;6.53;5.30;;;;;;;28.43;55.37;99636.19;6213458;23;20353;-84
2022/06/29 06:31:12;;;;;;;7.40;5.22;;;;;;;28.41;56.00;99638.84;6186389;23;20468;-84
2022/06/29 06:33:37;;;;;;;8.80;5.40;;;;;;;28.64;54.79;99633.88;6186482;23;20013;-84
2022/06/29 06:36:03;;;;;;;7.40;5.50;;;;;;;28.90;54.37;99640.53;6213421;23;20024;-84
2022/06/29 06:38:29;;;;;;;9.32;5.60;;;;;;;28.90;55.52;99631.97;6212843;23;20013;-85
2022/06/29 06:43:39;;;;;;;12.10;5.95;;;;;;;29.51;54.34;99609.69;6212624;23;20013;-84
2022/06/29 06:46:07;;;;;;;7.95;5.22;;;;;;;29.59;54.54;99627.56;6213907;23;20084;-85
2022/06/29 06:48:33;;;;;;;7.15;5.35;;;;;;;29.88;54.00;99633.72;6212824;23;20020;-84
2022/06/29 06:50:58;;;;;;;7.35;5.60;;;;;;;29.48;54.23;99633.72;6213159;23;20004;-84
2022/06/29 06:53:26;;;;;;;10.73;4.93;;;;;;;29.70;54.74;99629.19;6186265;23;20131;-84
2022/06/29 06:55:51;;;;;;;7.72;5.70;;;;;;;29.73;54.24;99619.47;6212963;23;20020;-84
2022/06/29 06:58:17;;;;;;;9.57;5.20;;;;;;;29.99;52.99;99624.66;6212747;23;20352;-84
2022/06/29 07:00:43;;;;;;;8.32;5.40;;;;;;;30.24;52.98;99622.59;6213237;23;20004;-84
2022/06/29 07:03:09;;;;;;;9.40;5.82;;;;;;;30.55;52.00;99609.53;6212845;23;20024;-84
2022/06/29 07:05:35;;;;;;;7.78;5.90;;;;;;;30.30;51.26;99608.78;6213357;23;20005;-84
2022/06/29 07:08:00;;;;;;;10.38;5.47;;;;;;;30.26;51.67;99602.72;6185975;23;20055;-84
2022/06/29 07:10:26;;;;;;;7.88;5.40;;;;;;;29.98;51.15;99606.75;6213034;23;20063;-84
2022/06/29 07:12:51;;;;;;;8.48;5.15;;;;;;;29.83;51.50;99606.84;6212458;23;20017;-84
2022/06/29 07:15:17;;;;;;;8.43;5.65;;;;;;;29.90;51.25;99606.03;6212746;23;20004;-84
2022/06/29 07:17:43;;;;;;;6.32;5.63;;;;;;;30.25;52.47;99609.03;6212849;23;20013;-84
2022/06/29 07:20:09;;;;;;;8.73;5.30;;;;;;;30.69;51.43;99603.50;6213563;23;20016;-83
2022/06/29 07:22:35;;;;;;;9.57;5.63;;;;;;;30.71;49.71;99590.09;6186004;23;20441;-82
2022/06/29 07:25:00;;;;;;;14.38;5.00;;;;;;;30.33;48.16;99589.72;6212943;23;20016;-82
2022/06/29 07:27:26;;;;;;;8.60;5.50;;;;;;;30.30;48.13;99588.00;6213197;23;20099;-83
2022/06/29 07:29:52;;;;;;;8.30;4.95;;;;;;;30.43;49.49;99596.28;6212779;23;20581;-82
2022/06/29 07:32:19;;;;;;;8.15;5.32;;;;;;;30.94;48.43;99584.13;6185893;23;20017;-82
2022/06/29 07:34:44;;;;;;;8.10;5.32;;;;;;;30.54;50.10;99592.94;6213325;23;20044;-82
2022/06/29 07:37:10;;;;;;;6.95;5.40;;;;;;;30.37;48.98;99585.06;6212950;23;20060;-85
2022/06/29 07:39:36;;;;;;;6.63;4.70;;;;;;;30.67;49.17;99594.72;6212587;23;20019;-85
2022/06/29 07:42:02;;;;;;;6.50;4.95;;;;;;;30.29;48.67;99589.34;6212796;23;20088;-84
2022/06/29 07:44:27;;;;;;;14.82;5.75;;;;;;;30.76;49.11;99580.53;6185888;23;20445;-84
2022/06/29 07:46:53;;;;;;;9.38;5.18;;;;;;;30.94;47.32;99584.88;6213083;23;20051;-84
2022/06/29 07:49:18;;;;;;;6.47;5.38;;;;;;;30.84;47.23;99577.56;6185936;23;20173;-84
2022/06/29 07:51:44;;;;;;;9.88;5.78;;;;;;;30.75;48.05;99579.00;6212784;23;20005;-82
2022/06/29 07:54:09;;;;;;;6.97;5.30;;;;;;;30.78;47.44;99577.03;6186050;23;20012;-83
2022/06/29 07:56:36;;;;;;;7.60;5.60;;;;;;;31.01;47.67;99577.59;6212854;23;20009;-83
2022/06/29 07:59:02;;;;;;;5.43;4.80;;;;;;;30.92;47.40;99575.38;6212637;23;20032;-83
2022/06/29 08:01:28;;;;;;;6.80;4.80;;;;;;;31.14;46.66;99571.50;6212431;23;20016;-83
2022/06/29 08:03:54;;;;;;;9.63;5.15;;;;;;;31.34;47.36;99573.13;6212562;23;20412;-83
2022/06/29 08:06:20;;;;;;;8.13;5.43;;;;;;;31.54;45.56;99579.03;6212985;23;20013;-82
2022/06/29 08:08:46;;;;;;;8.27;6.80;;;;;;;31.46;45.81;99573.38;6214511;23;20083;-83
2022/06/29 08:11:11;;;;;;;8.63;5.20;;;;;;;31.64;45.88;99580.59;6214438;23;20420;-82
2022/06/29 08:13:38;;;;;;;9.48;4.82;;;;;;;31.97;45.05;99572.44;6214053;23;19996;-82
2022/06/29 08:16:06;;;;;;;9.18;5.30;;;;;;;31.62;44.30;99576.81;6214808;23;20054;-82
2022/06/29 08:18:32;;;;;;;6.80;4.70;;;;;;;31.27;46.04;99568.28;6214298;23;20070;-83
2022/06/29 08:20:58;;;;;;;6.05;5.28;;;;;;;31.64;46.53;99565.50;6188319;23;20016;-83
2022/06/29 08:23:24;;;;;;;9.05;5.32;;;;;;;32.40;45.49;99562.19;6213861;23;20012;-83
2022/06/29 08:25:49;;;;;;;12.07;5.75;;;;;;;32.72;44.23;99552.41;6214638;23;20076;-83
2022/06/29 08:28:15;;;;;;;9.82;5.28;;;;;;;32.30;43.38;99558.53;6213861;23;20754;-84
2022/06/29 08:30:40;;;;;;;7.30;5.10;;;;;;;32.30;43.62;99555.66;6214683;23;20161;-83
2022/06/29 08:33:06;;;;;;;6.43;4.90;;;;;;;32.59;43.65;99553.63;6214237;23;20461;-83
2022/06/29 08:35:34;;;;;;;7.97;5.50;;;;;;;32.43;43.96;99560.22;6214221;23;20076;-83
2022/06/29 08:38:00;;;;;;;8.13;5.35;;;;;;;32.53;43.96;99555.25;6214268;23;20017;-83
2022/06/29 08:40:26;;;;;;;10.23;5.35;;;;;;;33.26;42.45;99564.38;6214132;23;20020;-82
2022/06/29 08:42:54;;;;;;;5.82;5.18;;;;;;;33.03;43.00;99564.06;6214122;23;20051;-83
2022/06/29 08:45:19;;;;;;;6.47;4.60;;;;;;;33.34;41.37;99564.19;6187721;23;20009;-83
2022/06/29 08:47:45;;;;;;;8.25;5.15;;;;;;;33.18;40.63;99553.03;6214455;23;20072;-83
2022/06/29 08:50:12;;;;;;;7.15;4.82;;;;;;;32.69;42.13;99553.63;6214249;23;20008;-83
2022/06/29 08:52:38;;;;;;;8.43;5.03;;;;;;;32.41;42.48;99546.47;6213918;23;20012;-83
2022/06/29 08:55:06;;;;;;;12.55;5.32;;;;;;;33.35;43.80;99542.72;6214032;23;20013;-83
2022/06/29 08:57:38;;;;;;;9.32;4.70;;;;;;;32.75;40.78;99551.22;6187841;23;20012;-82
2022/06/29 09:00:05;;;;;;;8.25;5.25;;;;;;;32.66;42.22;99537.63;6214097;23;20087;-83
2022/06/29 09:02:31;;;;;;;9.07;4.95;;;;;;;32.62;42.25;99543.06;6213890;23;20012;-83
2022/06/29 09:04:57;;;;;;;6.88;4.90;;;;;;;32.87;42.49;99540.66;6214132;23;20076;-83
2022/06/29 09:07:25;;;;;;;8.48;4.88;;;;;;;33.70;41.79;99538.09;6187969;23;20055;-83
2022/06/29 09:10:12;;;;;;;8.07;5.50;;;;;;;33.59;40.98;99538.72;6187251;23;20016;-83
2022/06/29 09:12:37;;;;;;;7.53;5.57;;;;;;;33.08;41.29;99540.75;6213962;23;20470;-83
2022/06/29 09:15:07;;;;;;;9.50;5.47;;;;;;;33.19;41.81;99540.19;6187006;23;20070;-83
2022/06/29 09:17:34;;;;;;;9.23;5.32;;;;;;;33.50;40.98;99531.63;6213531;23;20008;-83
2022/06/29 09:20:00;;;;;;;9.65;5.43;;;;;;;33.61;41.16;99535.97;6213802;23;20086;-83
2022/06/29 09:22:26;;;;;;;8.93;5.90;;;;;;;33.63;40.40;99521.75;6213687;23;20036;-83
2022/06/29 09:24:51;;;;;;;8.65;5.50;;;;;;;34.22;39.71;99523.00;6213759;23;20063;-83
2022/06/29 09:27:18;;;;;;;7.68;5.20;;;;;;;33.50;40.11;99522.25;6214123;23;20434;-83
2022/06/29 09:29:44;;;;;;;8.90;5.22;;;;;;;33.66;40.92;99524.19;6213573;23;20027;-83
2022/06/29 09:32:17;;;;;;;6.05;5.07;;;;;;;34.18;42.21;99521.38;6213751;23;20100;-83
2022/06/29 09:34:47;;;;;;;7.93;4.97;;;;;;;34.65;38.80;99513.06;6213441;23;20032;-83
2022/06/29 09:37:15;;;;;;;9.27;5.30;;;;;;;33.90;38.07;99521.50;6213933;23;20507;-83
2022/06/29 09:39:50;;;;;;;7.65;5.35;;;;;;;34.25;39.18;99513.94;6186946;23;20019;-83
2022/06/29 09:42:22;;;;;;;6.70;4.70;;;;;;;33.21;39.45;99523.06;6214031;23;20078;-83
2022/06/29 09:44:48;;;;;;;9.20;5.13;;;;;;;32.96;38.50;99528.38;6213990;23;20067;-83
2022/06/29 09:47:16;;;;;;;8.38;4.90;;;;;;;33.33;39.75;99523.19;6187435;23;20016;-83
2022/06/29 09:49:46;;;;;;;7.82;5.20;;;;;;;33.38;38.53;99527.88;6187114;23;20086;-82
2022/06/29 09:52:12;;;;;;;7.82;5.28;;;;;;;33.89;38.53;99537.28;6213817;23;20089;-83
2022/06/29 09:54:40;;;;;;;8.15;5.70;;;;;;;33.80;39.44;99535.94;6213448;23;20396;-83
2022/06/29 09:57:07;;;;;;;8.23;4.65;;;;;;;34.55;37.40;99524.63;6213937;23;20064;-83
2022/06/29 10:02:40;;;;;;;5.93;5.00;;;;;;;33.64;37.68;99521.19;6213329;23;20083;-82
2022/06/29 10:05:12;;;;;;;9.40;5.05;;;;;;;34.39;40.27;99519.88;6187925;23;20013;-83
2022/06/29 10:07:42;;;;;;;;;;;;;;;34.94;37.35;99525.06;6188566;23;20064;-82
2022/06/29 10:10:11;;;;;;;9.93;4.78;;;;;;;34.90;35.47;99519.03;6213961;23;19966;-82
2022/06/29 10:15:48;;;;;;;9.55;5.20;;;;;;;34.02;36.39;99517.34;6213998;23;20021;-82
2022/06/29 10:18:22;;;;;;;8.07;5.20;;;;;;;33.86;36.54;99526.97;6217454;23;20012;-82
2022/06/29 10:20:48;;;;;;;9.38;5.63;;;;;;;34.07;37.06;99522.03;6214506;23;20067;-83
2022/06/29 10:23:49;;;;;;;7.68;5.00;;;;;;;34.00;36.74;99519.34;6187218;23;20384;-82
2022/06/29 10:26:34;;;;;;;7.55;5.05;;;;;;;34.25;37.26;99511.06;6213865;23;20079;-82
2022/06/29 10:29:06;;;;;;;8.07;5.18;;;;;;;34.68;35.98;99508.94;6188615;23;20035;-83
2022/06/29 10:31:53;;;;;;;8.45;5.03;;;;;;;34.03;35.68;99507.34;6216202;23;20100;-83
2022/06/29 10:34:31;;;;;;;8.38;5.30;;;;;;;34.41;36.91;99502.75;6214147;23;20063;-82
2022/06/29 10:37:03;;;;;;;8.35;5.35;;;;;;;34.19;37.54;99499.88;6216335;23;20012;-83
2022/06/29 10:39:49;;;;;;;12.18;5.00;;;;;;;34.21;36.32;99498.50;6213074;23;20013;-83
2022/06/29 10:45:24;;;;;;;6.65;5.03;;;;;;;34.60;36.74;99493.97;6212811;23;20083;-83
2022/06/29 10:47:56;;;;;;;8.05;4.88;;;;;;;34.74;36.20;99489.16;6186852;23;20017;-83
2022/06/29 10:50:23;;;;;;;7.63;5.37;;;;;;;34.86;37.00;99487.06;6213397;23;20016;-83
2022/06/29 10:52:54;;;;;;;7.47;5.05;;;;;;;34.82;36.74;99486.06;6213445;23;20518;-83
2022/06/29 10:55:21;;;;;;;7.65;5.22;;;;;;;35.21;35.95;99484.34;6186985;23;20087;-83
2022/06/29 10:57:47;;;;;;;6.85;4.57;;;;;;;35.10;36.37;99471.34;6212882;23;20004;-83
2022/06/29 11:00:22;;;;;;;8.55;4.82;;;;;;;34.80;35.96;99483.03;6213229;23;20319;-82
2022/06/29 11:02:47;;;;;;;9.80;5.05;;;;;;;33.98;36.13;99470.28;6186800;23;20088;-83
2022/06/29 11:05:13;;;;;;;7.07;4.68;;;;;;;33.31;36.97;99479.19;6214043;23;20047;-82
2022/06/29 11:13:25;;;;;;;6.18;4.95;;;;;;;33.76;37.19;99466.63;6213086;23;20020;-83
2022/06/29 11:15:53;;;;;;;9.60;5.00;;;;;;;34.43;37.41;99456.81;6186508;23;20445;-83
2022/06/29 11:18:37;;;;;;;8.57;5.25;;;;;;;34.95;35.37;99460.28;6213152;23;20011;-82
2022/06/29 11:21:03;;;;;;;6.97;4.47;;;;;;;35.24;35.13;99456.38;6213156;23;20385;-83
2022/06/29 11:23:33;;;;;;;10.57;6.05;;;;;;;35.86;34.91;99448.78;6212422;23;20005;-83
2022/06/29 11:26:00;;;;;;;5.75;4.60;;;;;;;35.63;34.25;99451.66;6213316;23;20028;-83
2022/06/29 11:28:28;;;;;;;7.90;4.47;;;;;;;35.23;33.81;99455.63;6212749;23;20019;-83
2022/06/29 11:31:01;;;;;;;8.18;5.15;;;;;;;35.84;33.92;99453.66;6212586;23;20009;-83
2022/06/29 11:33:30;;;;;;;11.15;5.10;;;;;;;35.45;34.18;99436.84;6212532;23;20476;-83
2022/06/29 11:35:56;;;;;;;6.43;4.70;;;;;;;35.78;32.93;99451.16;6212873;23;20012;-83
2022/06/29 11:38:27;;;;;;;9.45;4.78;;;;;;;34.89;33.10;99445.50;6213237;23;20360;-83
2022/06/29 11:40:54;;;;;;;5.55;4.53;;;;;;;35.39;32.12;99444.34;6213638;23;20357;-83
2022/06/29 11:43:20;;;;;;;9.35;4.95;;;;;;;34.73;32.21;99441.56;6215087;23;20493;-83
2022/06/29 11:45:56;;;;;;;5.70;4.10;;;;;;;34.90;31.67;99443.38;6214512;23;20009;-83
2022/06/29 11:48:26;;;;;;;8.20;4.85;;;;;;;35.42;31.23;99431.59;6214657;23;20016;-83
2022/06/29 11:51:00;;;;;;;6.22;4.60;;;;;;;35.60;30.91;99432.69;6214672;23;20373;-83